sensor_id;sensor_type;location;lat;lon;timestamp;P1;durP1;ratioP1;P2;durP2;ratioP2
18612;SDS011;9436;52.152;21.032;2022-08-03T00:01:03;12.53;;;11.30;;
18612;SDS011;9436;52.152;21.032;2022-08-03T00:03:30;13.53;;;12.43;;
18612;SDS011;9436;52.152;21.032;2022-08-03T00:05:57;13.17;;;11.83;;
18612;SDS011;9436;52.152;21.032;2022-08-03T00:08:25;13.87;;;12.53;;
18612;SDS011;9436;52.152;21.032;2022-08-03T00:10:52;13.27;;;12.07;;
18612;SDS011;9436;52.152;21.032;2022-08-03T00:13:19;13.90;;;12.67;;
18612;SDS011;9436;52.152;21.032;2022-08-03T00:15:46;14.00;;;12.50;;
18612;SDS011;9436;52.152;21.032;2022-08-03T00:18:13;13.30;;;12.20;;
18612;SDS011;9436;52.152;21.032;2022-08-03T00:20:40;13.07;;;11.97;;
18612;SDS011;9436;52.152;21.032;2022-08-03T00:23:07;12.90;;;11.80;;
18612;SDS011;9436;52.152;21.032;2022-08-03T00:25:36;13.40;;;12.20;;
18612;SDS011;9436;52.152;21.032;2022-08-03T00:28:04;13.03;;;11.83;;
18612;SDS011;9436;52.152;21.032;2022-08-03T00:30:31;14.10;;;12.80;;
18612;SDS011;9436;52.152;21.032;2022-08-03T00:32:59;14.57;;;13.20;;
18612;SDS011;9436;52.152;21.032;2022-08-03T00:35:26;13.67;;;12.53;;
18612;SDS011;9436;52.152;21.032;2022-08-03T00:37:53;13.73;;;12.53;;
18612;SDS011;9436;52.152;21.032;2022-08-03T00:40:22;14.17;;;12.87;;
18612;SDS011;9436;52.152;21.032;2022-08-03T00:42:51;13.33;;;12.03;;
18612;SDS011;9436;52.152;21.032;2022-08-03T00:45:19;14.07;;;12.87;;
18612;SDS011;9436;52.152;21.032;2022-08-03T00:47:48;13.90;;;12.83;;
18612;SDS011;9436;52.152;21.032;2022-08-03T00:50:15;14.50;;;13.30;;
18612;SDS011;9436;52.152;21.032;2022-08-03T00:52:43;14.20;;;12.97;;
18612;SDS011;9436;52.152;21.032;2022-08-03T00:55:10;14.70;;;13.30;;
18612;SDS011;9436;52.152;21.032;2022-08-03T00:57:37;14.00;;;12.80;;
18612;SDS011;9436;52.152;21.032;2022-08-03T01:00:08;14.70;;;13.40;;
18612;SDS011;9436;52.152;21.032;2022-08-03T01:02:37;14.97;;;13.67;;
18612;SDS011;9436;52.152;21.032;2022-08-03T01:05:05;14.80;;;13.50;;
18612;SDS011;9436;52.152;21.032;2022-08-03T01:07:36;15.00;;;13.67;;
18612;SDS011;9436;52.152;21.032;2022-08-03T01:10:11;14.57;;;13.37;;
18612;SDS011;9436;52.152;21.032;2022-08-03T01:12:47;14.90;;;13.60;;
18612;SDS011;9436;52.152;21.032;2022-08-03T01:15:24;15.70;;;14.20;;
18612;SDS011;9436;52.152;21.032;2022-08-03T01:17:55;15.00;;;13.80;;
18612;SDS011;9436;52.152;21.032;2022-08-03T01:20:26;15.23;;;13.90;;
18612;SDS011;9436;52.152;21.032;2022-08-03T01:26:20;15.47;;;14.07;;
18612;SDS011;9436;52.152;21.032;2022-08-03T01:29:03;15.10;;;13.67;;
18612;SDS011;9436;52.152;21.032;2022-08-03T01:31:46;14.27;;;13.17;;
18612;SDS011;9436;52.152;21.032;2022-08-03T01:34:18;14.57;;;13.40;;
18612;SDS011;9436;52.152;21.032;2022-08-03T01:36:47;15.40;;;13.80;;
18612;SDS011;9436;52.152;21.032;2022-08-03T01:39:17;14.57;;;13.30;;
18612;SDS011;9436;52.152;21.032;2022-08-03T01:41:47;14.73;;;13.53;;
18612;SDS011;9436;52.152;21.032;2022-08-03T01:44:17;15.20;;;13.90;;
18612;SDS011;9436;52.152;21.032;2022-08-03T01:46:49;16.07;;;14.57;;
18612;SDS011;9436;52.152;21.032;2022-08-03T01:49:17;15.37;;;14.10;;
18612;SDS011;9436;52.152;21.032;2022-08-03T01:51:46;15.17;;;13.80;;
18612;SDS011;9436;52.152;21.032;2022-08-03T01:54:14;15.37;;;14.13;;
18612;SDS011;9436;52.152;21.032;2022-08-03T01:56:42;15.07;;;13.60;;
18612;SDS011;9436;52.152;21.032;2022-08-03T01:59:11;15.57;;;14.27;;
18612;SDS011;9436;52.152;21.032;2022-08-03T02:01:41;14.83;;;13.63;;
18612;SDS011;9436;52.152;21.032;2022-08-03T02:04:10;15.33;;;14.03;;
18612;SDS011;9436;52.152;21.032;2022-08-03T02:06:39;14.97;;;13.77;;
18612;SDS011;9436;52.152;21.032;2022-08-03T02:09:08;15.03;;;13.73;;
18612;SDS011;9436;52.152;21.032;2022-08-03T02:11:36;15.40;;;14.03;;
18612;SDS011;9436;52.152;21.032;2022-08-03T02:14:04;14.60;;;13.40;;
18612;SDS011;9436;52.152;21.032;2022-08-03T02:16:32;14.97;;;13.77;;
18612;SDS011;9436;52.152;21.032;2022-08-03T02:19:00;15.00;;;13.80;;
18612;SDS011;9436;52.152;21.032;2022-08-03T02:21:31;15.27;;;14.03;;
18612;SDS011;9436;52.152;21.032;2022-08-03T02:24:02;14.83;;;13.53;;
18612;SDS011;9436;52.152;21.032;2022-08-03T02:26:30;15.23;;;13.97;;
18612;SDS011;9436;52.152;21.032;2022-08-03T02:28:58;16.70;;;15.20;;
18612;SDS011;9436;52.152;21.032;2022-08-03T02:31:32;15.80;;;14.40;;
18612;SDS011;9436;52.152;21.032;2022-08-03T02:34:03;16.40;;;15.00;;
18612;SDS011;9436;52.152;21.032;2022-08-03T02:36:36;15.77;;;14.37;;
18612;SDS011;9436;52.152;21.032;2022-08-03T02:39:06;15.43;;;14.20;;
18612;SDS011;9436;52.152;21.032;2022-08-03T02:41:37;16.40;;;14.77;;
18612;SDS011;9436;52.152;21.032;2022-08-03T02:44:09;15.23;;;14.03;;
18612;SDS011;9436;52.152;21.032;2022-08-03T02:46:38;15.70;;;14.13;;
18612;SDS011;9436;52.152;21.032;2022-08-03T02:49:09;15.90;;;14.50;;
18612;SDS011;9436;52.152;21.032;2022-08-03T02:51:40;15.57;;;14.27;;
18612;SDS011;9436;52.152;21.032;2022-08-03T02:54:08;16.37;;;15.00;;
18612;SDS011;9436;52.152;21.032;2022-08-03T02:56:36;16.47;;;14.87;;
18612;SDS011;9436;52.152;21.032;2022-08-03T02:59:04;16.70;;;15.43;;
18612;SDS011;9436;52.152;21.032;2022-08-03T03:01:32;17.93;;;16.40;;
18612;SDS011;9436;52.152;21.032;2022-08-03T03:03:59;17.07;;;15.60;;
18612;SDS011;9436;52.152;21.032;2022-08-03T03:06:27;19.43;;;17.70;;
18612;SDS011;9436;52.152;21.032;2022-08-03T03:08:56;18.37;;;16.63;;
18612;SDS011;9436;52.152;21.032;2022-08-03T03:11:25;19.10;;;17.20;;
18612;SDS011;9436;52.152;21.032;2022-08-03T03:13:52;19.67;;;17.90;;
18612;SDS011;9436;52.152;21.032;2022-08-03T03:16:22;18.97;;;17.37;;
18612;SDS011;9436;52.152;21.032;2022-08-03T03:18:51;21.20;;;19.40;;
18612;SDS011;9436;52.152;21.032;2022-08-03T03:21:19;20.53;;;18.63;;
18612;SDS011;9436;52.152;21.032;2022-08-03T03:23:48;19.80;;;18.20;;
18612;SDS011;9436;52.152;21.032;2022-08-03T03:26:17;19.13;;;17.53;;
18612;SDS011;9436;52.152;21.032;2022-08-03T03:28:44;19.67;;;17.93;;
18612;SDS011;9436;52.152;21.032;2022-08-03T03:31:11;20.27;;;18.27;;
18612;SDS011;9436;52.152;21.032;2022-08-03T03:33:38;18.73;;;17.13;;
18612;SDS011;9436;52.152;21.032;2022-08-03T03:36:06;19.00;;;17.30;;
18612;SDS011;9436;52.152;21.032;2022-08-03T03:38:33;18.93;;;17.23;;
18612;SDS011;9436;52.152;21.032;2022-08-03T03:41:00;18.03;;;16.60;;
18612;SDS011;9436;52.152;21.032;2022-08-03T03:43:29;18.23;;;16.67;;
18612;SDS011;9436;52.152;21.032;2022-08-03T03:45:57;18.00;;;16.37;;
18612;SDS011;9436;52.152;21.032;2022-08-03T03:48:24;18.03;;;16.43;;
18612;SDS011;9436;52.152;21.032;2022-08-03T03:50:52;18.43;;;16.97;;
18612;SDS011;9436;52.152;21.032;2022-08-03T03:53:21;19.03;;;17.33;;
18612;SDS011;9436;52.152;21.032;2022-08-03T03:55:49;18.47;;;16.90;;
18612;SDS011;9436;52.152;21.032;2022-08-03T03:58:18;18.37;;;16.57;;
18612;SDS011;9436;52.152;21.032;2022-08-03T04:00:47;18.33;;;16.83;;
18612;SDS011;9436;52.152;21.032;2022-08-03T04:03:14;18.40;;;16.90;;
18612;SDS011;9436;52.152;21.032;2022-08-03T04:05:41;17.90;;;16.40;;
18612;SDS011;9436;52.152;21.032;2022-08-03T04:08:31;18.13;;;16.43;;
18612;SDS011;9436;52.152;21.032;2022-08-03T04:11:17;17.60;;;16.10;;
18612;SDS011;9436;52.152;21.032;2022-08-03T04:13:46;17.67;;;16.17;;
18612;SDS011;9436;52.152;21.032;2022-08-03T04:16:17;18.27;;;16.77;;
18612;SDS011;9436;52.152;21.032;2022-08-03T04:18:50;18.80;;;17.30;;
18612;SDS011;9436;52.152;21.032;2022-08-03T04:21:20;17.83;;;16.33;;
18612;SDS011;9436;52.152;21.032;2022-08-03T04:23:50;18.43;;;16.83;;
18612;SDS011;9436;52.152;21.032;2022-08-03T04:26:21;20.10;;;18.33;;
18612;SDS011;9436;52.152;21.032;2022-08-03T04:28:49;19.43;;;17.80;;
18612;SDS011;9436;52.152;21.032;2022-08-03T04:31:21;18.73;;;17.23;;
18612;SDS011;9436;52.152;21.032;2022-08-03T04:33:50;20.87;;;19.07;;
18612;SDS011;9436;52.152;21.032;2022-08-03T04:36:20;19.73;;;18.07;;
18612;SDS011;9436;52.152;21.032;2022-08-03T04:38:53;20.50;;;18.80;;
18612;SDS011;9436;52.152;21.032;2022-08-03T04:41:25;19.90;;;18.30;;
18612;SDS011;9436;52.152;21.032;2022-08-03T04:43:53;18.80;;;17.27;;
18612;SDS011;9436;52.152;21.032;2022-08-03T04:46:25;20.57;;;18.87;;
18612;SDS011;9436;52.152;21.032;2022-08-03T04:48:53;17.87;;;16.37;;
18612;SDS011;9436;52.152;21.032;2022-08-03T04:51:21;18.90;;;17.37;;
18612;SDS011;9436;52.152;21.032;2022-08-03T04:53:49;17.83;;;16.40;;
18612;SDS011;9436;52.152;21.032;2022-08-03T04:56:16;18.90;;;17.20;;
18612;SDS011;9436;52.152;21.032;2022-08-03T04:58:43;19.20;;;17.70;;
18612;SDS011;9436;52.152;21.032;2022-08-03T05:01:10;18.77;;;17.27;;
18612;SDS011;9436;52.152;21.032;2022-08-03T05:03:38;18.27;;;16.83;;
18612;SDS011;9436;52.152;21.032;2022-08-03T05:06:05;19.40;;;17.63;;
18612;SDS011;9436;52.152;21.032;2022-08-03T05:08:32;18.90;;;17.20;;
18612;SDS011;9436;52.152;21.032;2022-08-03T05:10:59;19.80;;;17.90;;
18612;SDS011;9436;52.152;21.032;2022-08-03T05:13:26;19.47;;;17.73;;
18612;SDS011;9436;52.152;21.032;2022-08-03T05:15:53;18.77;;;17.17;;
18612;SDS011;9436;52.152;21.032;2022-08-03T05:18:22;19.47;;;17.70;;
18612;SDS011;9436;52.152;21.032;2022-08-03T05:20:50;19.23;;;17.53;;
18612;SDS011;9436;52.152;21.032;2022-08-03T05:23:17;20.33;;;18.53;;
18612;SDS011;9436;52.152;21.032;2022-08-03T05:25:45;20.47;;;18.67;;
18612;SDS011;9436;52.152;21.032;2022-08-03T05:28:12;20.37;;;18.53;;
18612;SDS011;9436;52.152;21.032;2022-08-03T05:30:39;19.30;;;17.67;;
18612;SDS011;9436;52.152;21.032;2022-08-03T05:33:06;19.67;;;17.97;;
18612;SDS011;9436;52.152;21.032;2022-08-03T05:35:33;19.57;;;17.97;;
18612;SDS011;9436;52.152;21.032;2022-08-03T05:38:02;20.60;;;18.90;;
18612;SDS011;9436;52.152;21.032;2022-08-03T05:40:29;21.83;;;19.83;;
18612;SDS011;9436;52.152;21.032;2022-08-03T05:42:56;19.97;;;18.23;;
18612;SDS011;9436;52.152;21.032;2022-08-03T05:45:24;21.53;;;19.73;;
18612;SDS011;9436;52.152;21.032;2022-08-03T05:47:51;19.93;;;18.23;;
18612;SDS011;9436;52.152;21.032;2022-08-03T05:50:18;21.13;;;19.33;;
18612;SDS011;9436;52.152;21.032;2022-08-03T05:52:45;20.30;;;18.60;;
18612;SDS011;9436;52.152;21.032;2022-08-03T05:55:14;20.60;;;19.00;;
18612;SDS011;9436;52.152;21.032;2022-08-03T05:57:41;24.87;;;22.67;;
18612;SDS011;9436;52.152;21.032;2022-08-03T06:00:11;23.63;;;21.67;;
18612;SDS011;9436;52.152;21.032;2022-08-03T06:02:38;20.77;;;18.93;;
18612;SDS011;9436;52.152;21.032;2022-08-03T06:05:06;22.70;;;20.70;;
18612;SDS011;9436;52.152;21.032;2022-08-03T06:07:33;21.13;;;19.23;;
18612;SDS011;9436;52.152;21.032;2022-08-03T06:10:00;23.23;;;21.17;;
18612;SDS011;9436;52.152;21.032;2022-08-03T06:12:30;21.67;;;19.60;;
18612;SDS011;9436;52.152;21.032;2022-08-03T06:15:00;21.87;;;19.87;;
18612;SDS011;9436;52.152;21.032;2022-08-03T06:17:27;22.17;;;19.73;;
18612;SDS011;9436;52.152;21.032;2022-08-03T06:19:54;21.13;;;19.27;;
18612;SDS011;9436;52.152;21.032;2022-08-03T06:22:21;23.50;;;21.33;;
18612;SDS011;9436;52.152;21.032;2022-08-03T06:24:48;21.90;;;20.00;;
18612;SDS011;9436;52.152;21.032;2022-08-03T06:27:15;21.83;;;19.97;;
18612;SDS011;9436;52.152;21.032;2022-08-03T06:29:43;20.50;;;18.80;;
18612;SDS011;9436;52.152;21.032;2022-08-03T06:32:10;23.33;;;21.27;;
18612;SDS011;9436;52.152;21.032;2022-08-03T06:34:37;19.80;;;17.80;;
18612;SDS011;9436;52.152;21.032;2022-08-03T06:37:04;18.87;;;17.27;;
18612;SDS011;9436;52.152;21.032;2022-08-03T06:39:31;19.00;;;17.27;;
18612;SDS011;9436;52.152;21.032;2022-08-03T06:41:59;18.83;;;17.23;;
18612;SDS011;9436;52.152;21.032;2022-08-03T06:44:25;19.83;;;17.87;;
18612;SDS011;9436;52.152;21.032;2022-08-03T06:46:54;17.83;;;16.13;;
18612;SDS011;9436;52.152;21.032;2022-08-03T06:49:21;17.67;;;16.27;;
18612;SDS011;9436;52.152;21.032;2022-08-03T06:51:48;19.13;;;17.60;;
18612;SDS011;9436;52.152;21.032;2022-08-03T06:54:17;19.30;;;17.53;;
18612;SDS011;9436;52.152;21.032;2022-08-03T06:56:46;18.70;;;16.97;;
18612;SDS011;9436;52.152;21.032;2022-08-03T06:59:13;18.03;;;16.13;;
18612;SDS011;9436;52.152;21.032;2022-08-03T07:01:40;17.33;;;15.67;;
18612;SDS011;9436;52.152;21.032;2022-08-03T07:04:08;17.57;;;16.07;;
18612;SDS011;9436;52.152;21.032;2022-08-03T07:06:36;17.87;;;16.17;;
18612;SDS011;9436;52.152;21.032;2022-08-03T07:09:03;17.13;;;15.47;;
18612;SDS011;9436;52.152;21.032;2022-08-03T07:11:30;17.70;;;16.10;;
18612;SDS011;9436;52.152;21.032;2022-08-03T07:13:57;16.77;;;15.37;;
18612;SDS011;9436;52.152;21.032;2022-08-03T07:16:24;20.03;;;18.17;;
18612;SDS011;9436;52.152;21.032;2022-08-03T07:18:51;16.37;;;14.87;;
18612;SDS011;9436;52.152;21.032;2022-08-03T07:21:20;19.80;;;17.90;;
18612;SDS011;9436;52.152;21.032;2022-08-03T07:23:47;16.90;;;15.50;;
18612;SDS011;9436;52.152;21.032;2022-08-03T07:26:14;19.90;;;17.03;;
18612;SDS011;9436;52.152;21.032;2022-08-03T07:28:40;15.37;;;14.00;;
18612;SDS011;9436;52.152;21.032;2022-08-03T07:31:07;14.93;;;13.47;;
18612;SDS011;9436;52.152;21.032;2022-08-03T07:33:34;14.83;;;13.57;;
18612;SDS011;9436;52.152;21.032;2022-08-03T07:36:01;15.17;;;13.63;;
18612;SDS011;9436;52.152;21.032;2022-08-03T07:38:30;12.53;;;11.37;;
18612;SDS011;9436;52.152;21.032;2022-08-03T07:40:57;13.83;;;12.70;;
18612;SDS011;9436;52.152;21.032;2022-08-03T07:43:24;12.03;;;10.93;;
18612;SDS011;9436;52.152;21.032;2022-08-03T07:45:52;13.20;;;11.90;;
18612;SDS011;9436;52.152;21.032;2022-08-03T07:48:19;13.03;;;11.77;;
18612;SDS011;9436;52.152;21.032;2022-08-03T07:50:46;14.63;;;12.63;;
18612;SDS011;9436;52.152;21.032;2022-08-03T07:53:14;15.50;;;13.90;;
18612;SDS011;9436;52.152;21.032;2022-08-03T07:55:43;13.57;;;11.33;;
18612;SDS011;9436;52.152;21.032;2022-08-03T07:58:10;11.50;;;10.40;;
18612;SDS011;9436;52.152;21.032;2022-08-03T08:00:40;9.97;;;9.03;;
18612;SDS011;9436;52.152;21.032;2022-08-03T08:03:08;10.97;;;9.97;;
18612;SDS011;9436;52.152;21.032;2022-08-03T08:05:36;12.83;;;11.63;;
18612;SDS011;9436;52.152;21.032;2022-08-03T08:08:03;13.10;;;11.47;;
18612;SDS011;9436;52.152;21.032;2022-08-03T08:10:30;12.40;;;11.17;;
18612;SDS011;9436;52.152;21.032;2022-08-03T08:12:59;10.33;;;9.07;;
18612;SDS011;9436;52.152;21.032;2022-08-03T08:15:26;10.27;;;9.40;;
18612;SDS011;9436;52.152;21.032;2022-08-03T08:17:54;12.23;;;10.93;;
18612;SDS011;9436;52.152;21.032;2022-08-03T08:20:23;10.63;;;9.73;;
18612;SDS011;9436;52.152;21.032;2022-08-03T08:22:54;9.10;;;8.20;;
18612;SDS011;9436;52.152;21.032;2022-08-03T08:25:23;8.80;;;7.93;;
18612;SDS011;9436;52.152;21.032;2022-08-03T08:27:50;8.87;;;7.93;;
18612;SDS011;9436;52.152;21.032;2022-08-03T08:30:20;9.07;;;8.17;;
18612;SDS011;9436;52.152;21.032;2022-08-03T08:32:48;11.07;;;10.03;;
18612;SDS011;9436;52.152;21.032;2022-08-03T08:35:16;36.33;;;32.83;;
18612;SDS011;9436;52.152;21.032;2022-08-03T08:37:43;12.33;;;11.03;;
18612;SDS011;9436;52.152;21.032;2022-08-03T08:40:11;6.37;;;4.43;;
18612;SDS011;9436;52.152;21.032;2022-08-03T08:42:38;4.37;;;3.97;;
18612;SDS011;9436;52.152;21.032;2022-08-03T08:45:06;5.00;;;4.50;;
18612;SDS011;9436;52.152;21.032;2022-08-03T08:47:37;5.50;;;5.00;;
18612;SDS011;9436;52.152;21.032;2022-08-03T08:50:06;5.60;;;5.20;;
18612;SDS011;9436;52.152;21.032;2022-08-03T08:52:34;5.13;;;4.73;;
18612;SDS011;9436;52.152;21.032;2022-08-03T08:55:02;8.73;;;5.50;;
18612;SDS011;9436;52.152;21.032;2022-08-03T08:57:32;6.03;;;5.53;;
18612;SDS011;9436;52.152;21.032;2022-08-03T09:00:03;5.30;;;4.90;;
18612;SDS011;9436;52.152;21.032;2022-08-03T09:02:32;5.33;;;4.83;;
18612;SDS011;9436;52.152;21.032;2022-08-03T09:05:00;5.80;;;5.30;;
18612;SDS011;9436;52.152;21.032;2022-08-03T09:07:27;6.00;;;5.50;;
18612;SDS011;9436;52.152;21.032;2022-08-03T09:09:55;5.60;;;5.10;;
18612;SDS011;9436;52.152;21.032;2022-08-03T09:12:22;5.60;;;5.00;;
18612;SDS011;9436;52.152;21.032;2022-08-03T09:14:49;7.67;;;5.77;;
18612;SDS011;9436;52.152;21.032;2022-08-03T09:17:16;7.63;;;6.37;;
18612;SDS011;9436;52.152;21.032;2022-08-03T09:19:43;6.23;;;5.60;;
18612;SDS011;9436;52.152;21.032;2022-08-03T09:22:32;7.10;;;6.40;;
18612;SDS011;9436;52.152;21.032;2022-08-03T09:25:00;5.60;;;4.80;;
18612;SDS011;9436;52.152;21.032;2022-08-03T09:27:40;5.70;;;5.20;;
18612;SDS011;9436;52.152;21.032;2022-08-03T09:30:11;5.73;;;5.10;;
18612;SDS011;9436;52.152;21.032;2022-08-03T09:32:40;5.00;;;4.60;;
18612;SDS011;9436;52.152;21.032;2022-08-03T09:35:10;5.00;;;4.30;;
18612;SDS011;9436;52.152;21.032;2022-08-03T09:37:38;5.17;;;4.60;;
18612;SDS011;9436;52.152;21.032;2022-08-03T09:40:05;5.00;;;4.60;;
18612;SDS011;9436;52.152;21.032;2022-08-03T09:42:33;4.73;;;4.33;;
18612;SDS011;9436;52.152;21.032;2022-08-03T09:45:02;6.77;;;4.90;;
18612;SDS011;9436;52.152;21.032;2022-08-03T09:47:31;5.77;;;4.60;;
18612;SDS011;9436;52.152;21.032;2022-08-03T09:50:01;5.50;;;4.37;;
18612;SDS011;9436;52.152;21.032;2022-08-03T09:52:32;6.23;;;4.37;;
18612;SDS011;9436;52.152;21.032;2022-08-03T09:55:01;5.50;;;5.00;;
18612;SDS011;9436;52.152;21.032;2022-08-03T09:57:33;5.23;;;4.73;;
18612;SDS011;9436;52.152;21.032;2022-08-03T10:00:05;5.60;;;4.80;;
18612;SDS011;9436;52.152;21.032;2022-08-03T10:02:36;5.10;;;4.70;;
18612;SDS011;9436;52.152;21.032;2022-08-03T10:05:03;5.17;;;4.67;;
18612;SDS011;9436;52.152;21.032;2022-08-03T10:07:41;5.00;;;4.50;;
18612;SDS011;9436;52.152;21.032;2022-08-03T10:10:09;4.83;;;4.17;;
18612;SDS011;9436;52.152;21.032;2022-08-03T10:12:37;4.70;;;4.30;;
18612;SDS011;9436;52.152;21.032;2022-08-03T10:15:05;8.23;;;5.10;;
18612;SDS011;9436;52.152;21.032;2022-08-03T10:17:34;5.00;;;4.57;;
18612;SDS011;9436;52.152;21.032;2022-08-03T10:20:02;4.87;;;4.30;;
18612;SDS011;9436;52.152;21.032;2022-08-03T10:22:31;4.80;;;4.40;;
18612;SDS011;9436;52.152;21.032;2022-08-03T10:25:02;4.60;;;4.30;;
18612;SDS011;9436;52.152;21.032;2022-08-03T10:27:33;5.73;;;4.70;;
18612;SDS011;9436;52.152;21.032;2022-08-03T10:30:03;5.13;;;4.73;;
18612;SDS011;9436;52.152;21.032;2022-08-03T10:32:33;5.50;;;5.10;;
18612;SDS011;9436;52.152;21.032;2022-08-03T10:35:05;6.37;;;4.63;;
18612;SDS011;9436;52.152;21.032;2022-08-03T10:37:39;4.80;;;4.40;;
18612;SDS011;9436;52.152;21.032;2022-08-03T10:40:11;5.63;;;4.70;;
18612;SDS011;9436;52.152;21.032;2022-08-03T10:42:40;5.20;;;4.80;;
18612;SDS011;9436;52.152;21.032;2022-08-03T10:45:11;4.77;;;4.40;;
18612;SDS011;9436;52.152;21.032;2022-08-03T10:47:43;4.60;;;4.20;;
18612;SDS011;9436;52.152;21.032;2022-08-03T10:50:10;5.10;;;4.60;;
18612;SDS011;9436;52.152;21.032;2022-08-03T10:52:52;4.90;;;4.37;;
18612;SDS011;9436;52.152;21.032;2022-08-03T10:55:31;6.47;;;4.57;;
18612;SDS011;9436;52.152;21.032;2022-08-03T11:01:15;5.60;;;4.70;;
18612;SDS011;9436;52.152;21.032;2022-08-03T11:06:41;5.00;;;4.50;;
18612;SDS011;9436;52.152;21.032;2022-08-03T11:09:13;4.57;;;4.17;;
18612;SDS011;9436;52.152;21.032;2022-08-03T11:11:43;4.50;;;4.20;;
18612;SDS011;9436;52.152;21.032;2022-08-03T11:14:13;4.40;;;4.00;;
18612;SDS011;9436;52.152;21.032;2022-08-03T11:16:42;4.57;;;4.27;;
18612;SDS011;9436;52.152;21.032;2022-08-03T11:19:11;5.70;;;5.10;;
18612;SDS011;9436;52.152;21.032;2022-08-03T11:21:53;5.20;;;4.80;;
18612;SDS011;9436;52.152;21.032;2022-08-03T11:27:23;5.53;;;5.13;;
18612;SDS011;9436;52.152;21.032;2022-08-03T11:29:53;4.37;;;3.97;;
18612;SDS011;9436;52.152;21.032;2022-08-03T11:35:22;4.80;;;4.40;;
18612;SDS011;9436;52.152;21.032;2022-08-03T11:38:03;4.87;;;4.47;;
18612;SDS011;9436;52.152;21.032;2022-08-03T11:40:32;6.40;;;4.70;;
18612;SDS011;9436;52.152;21.032;2022-08-03T11:46:11;4.57;;;4.27;;
18612;SDS011;9436;52.152;21.032;2022-08-03T11:48:44;5.00;;;4.60;;
18612;SDS011;9436;52.152;21.032;2022-08-03T11:51:19;4.50;;;4.20;;
18612;SDS011;9436;52.152;21.032;2022-08-03T11:53:50;4.83;;;4.43;;
18612;SDS011;9436;52.152;21.032;2022-08-03T11:56:17;4.80;;;4.50;;
18612;SDS011;9436;52.152;21.032;2022-08-03T11:58:46;5.50;;;5.00;;
18612;SDS011;9436;52.152;21.032;2022-08-03T12:01:14;5.20;;;4.80;;
18612;SDS011;9436;52.152;21.032;2022-08-03T12:03:41;5.10;;;4.60;;
18612;SDS011;9436;52.152;21.032;2022-08-03T12:06:09;5.30;;;4.80;;
18612;SDS011;9436;52.152;21.032;2022-08-03T12:08:37;5.20;;;4.80;;
18612;SDS011;9436;52.152;21.032;2022-08-03T12:11:04;5.93;;;5.43;;
18612;SDS011;9436;52.152;21.032;2022-08-03T12:13:40;5.43;;;4.93;;
18612;SDS011;9436;52.152;21.032;2022-08-03T12:16:11;6.37;;;5.70;;
18612;SDS011;9436;52.152;21.032;2022-08-03T12:18:42;6.43;;;5.87;;
18612;SDS011;9436;52.152;21.032;2022-08-03T12:21:10;5.77;;;5.27;;
18612;SDS011;9436;52.152;21.032;2022-08-03T12:23:37;5.73;;;5.10;;
18612;SDS011;9436;52.152;21.032;2022-08-03T12:26:05;6.20;;;5.60;;
18612;SDS011;9436;52.152;21.032;2022-08-03T12:28:34;5.57;;;5.17;;
18612;SDS011;9436;52.152;21.032;2022-08-03T12:31:03;5.83;;;5.33;;
18612;SDS011;9436;52.152;21.032;2022-08-03T12:33:53;5.80;;;5.20;;
18612;SDS011;9436;52.152;21.032;2022-08-03T12:36:20;5.70;;;5.20;;
18612;SDS011;9436;52.152;21.032;2022-08-03T12:38:53;5.23;;;4.73;;
18612;SDS011;9436;52.152;21.032;2022-08-03T12:41:26;4.30;;;3.90;;
18612;SDS011;9436;52.152;21.032;2022-08-03T12:43:54;5.67;;;5.17;;
18612;SDS011;9436;52.152;21.032;2022-08-03T12:46:21;6.20;;;5.60;;
18612;SDS011;9436;52.152;21.032;2022-08-03T12:54:25;6.40;;;5.80;;
18612;SDS011;9436;52.152;21.032;2022-08-03T12:56:56;5.97;;;5.50;;
18612;SDS011;9436;52.152;21.032;2022-08-03T12:59:26;7.00;;;6.30;;
18612;SDS011;9436;52.152;21.032;2022-08-03T13:01:54;6.03;;;5.53;;
18612;SDS011;9436;52.152;21.032;2022-08-03T13:04:26;5.23;;;4.83;;
18612;SDS011;9436;52.152;21.032;2022-08-03T13:06:57;5.50;;;5.10;;
18612;SDS011;9436;52.152;21.032;2022-08-03T13:09:25;5.97;;;5.50;;
18612;SDS011;9436;52.152;21.032;2022-08-03T13:12:03;6.00;;;5.50;;
18612;SDS011;9436;52.152;21.032;2022-08-03T13:14:31;5.73;;;5.23;;
18612;SDS011;9436;52.152;21.032;2022-08-03T13:16:58;5.50;;;5.00;;
18612;SDS011;9436;52.152;21.032;2022-08-03T13:19:26;5.97;;;5.50;;
18612;SDS011;9436;52.152;21.032;2022-08-03T13:21:53;5.77;;;5.37;;
18612;SDS011;9436;52.152;21.032;2022-08-03T13:24:20;5.97;;;5.37;;
18612;SDS011;9436;52.152;21.032;2022-08-03T13:26:47;5.03;;;4.63;;
18612;SDS011;9436;52.152;21.032;2022-08-03T13:29:15;5.57;;;5.17;;
18612;SDS011;9436;52.152;21.032;2022-08-03T13:31:42;5.20;;;4.80;;
18612;SDS011;9436;52.152;21.032;2022-08-03T13:34:09;6.17;;;5.57;;
18612;SDS011;9436;52.152;21.032;2022-08-03T13:36:37;5.60;;;5.10;;
18612;SDS011;9436;52.152;21.032;2022-08-03T13:39:04;5.37;;;4.87;;
18612;SDS011;9436;52.152;21.032;2022-08-03T13:41:31;5.50;;;5.07;;
18612;SDS011;9436;52.152;21.032;2022-08-03T13:43:58;6.00;;;5.40;;
18612;SDS011;9436;52.152;21.032;2022-08-03T13:46:25;5.63;;;5.13;;
18612;SDS011;9436;52.152;21.032;2022-08-03T13:48:52;5.57;;;5.07;;
18612;SDS011;9436;52.152;21.032;2022-08-03T13:51:19;5.80;;;5.30;;
18612;SDS011;9436;52.152;21.032;2022-08-03T13:53:47;6.83;;;5.93;;
18612;SDS011;9436;52.152;21.032;2022-08-03T13:56:15;6.13;;;5.53;;
18612;SDS011;9436;52.152;21.032;2022-08-03T13:58:42;6.03;;;5.53;;
18612;SDS011;9436;52.152;21.032;2022-08-03T14:01:09;5.33;;;4.93;;
18612;SDS011;9436;52.152;21.032;2022-08-03T14:03:36;5.37;;;4.97;;
18612;SDS011;9436;52.152;21.032;2022-08-03T14:06:03;6.00;;;5.47;;
18612;SDS011;9436;52.152;21.032;2022-08-03T14:08:30;5.23;;;4.83;;
18612;SDS011;9436;52.152;21.032;2022-08-03T14:10:58;6.00;;;5.40;;
18612;SDS011;9436;52.152;21.032;2022-08-03T14:13:25;5.97;;;5.37;;
18612;SDS011;9436;52.152;21.032;2022-08-03T14:15:52;5.40;;;4.90;;
18612;SDS011;9436;52.152;21.032;2022-08-03T14:18:20;5.57;;;5.17;;
18612;SDS011;9436;52.152;21.032;2022-08-03T14:20:47;5.15;;;4.75;;
18612;SDS011;9436;52.152;21.032;2022-08-03T14:23:14;5.43;;;5.05;;
18612;SDS011;9436;52.152;21.032;2022-08-03T14:25:41;7.03;;;5.30;;
18612;SDS011;9436;52.152;21.032;2022-08-03T14:28:10;5.37;;;4.97;;
18612;SDS011;9436;52.152;21.032;2022-08-03T14:30:37;5.17;;;4.77;;
18612;SDS011;9436;52.152;21.032;2022-08-03T14:33:04;4.93;;;4.63;;
18612;SDS011;9436;52.152;21.032;2022-08-03T14:35:31;5.10;;;4.70;;
18612;SDS011;9436;52.152;21.032;2022-08-03T14:37:58;5.70;;;5.30;;
18612;SDS011;9436;52.152;21.032;2022-08-03T14:40:25;6.20;;;5.60;;
18612;SDS011;9436;52.152;21.032;2022-08-03T14:42:52;5.50;;;5.03;;
18612;SDS011;9436;52.152;21.032;2022-08-03T14:45:20;5.07;;;4.57;;
18612;SDS011;9436;52.152;21.032;2022-08-03T14:47:47;5.37;;;4.83;;
18612;SDS011;9436;52.152;21.032;2022-08-03T14:50:15;5.38;;;4.78;;
18612;SDS011;9436;52.152;21.032;2022-08-03T14:52:42;6.20;;;5.60;;
18612;SDS011;9436;52.152;21.032;2022-08-03T14:55:09;5.30;;;4.90;;
18612;SDS011;9436;52.152;21.032;2022-08-03T14:57:36;5.07;;;4.77;;
18612;SDS011;9436;52.152;21.032;2022-08-03T15:00:03;5.60;;;5.07;;
18612;SDS011;9436;52.152;21.032;2022-08-03T15:02:32;5.70;;;5.20;;
18612;SDS011;9436;52.152;21.032;2022-08-03T15:04:59;5.77;;;5.27;;
18612;SDS011;9436;52.152;21.032;2022-08-03T15:07:26;5.13;;;4.80;;